Time;durP1;ratioP1;P1;durP2;ratioP2;P2;SDS_P1;SDS_P2;PMS_P1;PMS_P2;Temp;Humidity;BMP_temperature;BMP_pressure;BME280_temperature;BME280_humidity;BME280_pressure;Samples;Min_cycle;Max_cycle;Signal;HPM_P1;HPM_P2
2022/11/19 00:02:25;;;;;;;11.30;5.47;;;;;;;-3.75;76.04;99481.84;5029651;28;20045;-55
2022/11/19 00:04:51;;;;;;;7.70;4.32;;;;;;;-3.72;76.04;99484.44;5028293;28;20044;-56
2022/11/19 00:07:17;;;;;;;11.80;4.90;;;;;;;-3.72;75.43;99485.31;5029702;28;20539;-55
2022/11/19 00:09:43;;;;;;;10.68;4.43;;;;;;;-3.85;75.38;99458.81;5029133;28;20076;-54
2022/11/19 00:14:54;;;;;;;10.60;5.05;;;;;;;-3.64;75.32;99482.91;5030513;28;20135;-55
2022/11/19 00:17:19;;;;;;;7.85;4.25;;;;;;;-3.61;75.20;99477.88;5029528;28;20187;-57
2022/11/19 00:19:45;;;;;;;12.30;5.28;;;;;;;-3.63;75.14;99475.31;5028700;28;20497;-55
2022/11/19 00:22:11;;;;;;;11.57;5.32;;;;;;;-3.65;74.87;99481.19;5030305;28;20053;-54
2022/11/19 00:24:38;;;;;;;12.20;5.25;;;;;;;-3.68;74.68;99479.47;5028093;28;20037;-55
2022/11/19 00:27:04;;;;;;;11.85;4.55;;;;;;;-3.72;74.88;99477.69;5010981;28;20480;-55
2022/11/19 00:29:30;;;;;;;10.40;4.65;;;;;;;-3.72;74.53;99484.44;5012134;28;20052;-57
2022/11/19 00:31:56;;;;;;;11.60;4.70;;;;;;;-3.74;74.89;99488.63;5028208;28;20052;-56
2022/11/19 00:34:22;;;;;;;8.70;4.22;;;;;;;-3.73;75.18;99497.97;5028441;28;20041;-57
2022/11/19 00:36:47;;;;;;;10.63;4.68;;;;;;;-3.77;74.62;99486.91;5027546;28;20045;-55
2022/11/19 00:39:13;;;;;;;11.80;5.07;;;;;;;-3.80;75.00;99499.53;5043748;28;20377;-52
2022/11/19 00:41:39;;;;;;;10.10;4.88;;;;;;;-3.82;75.05;99497.78;5012143;28;20075;-53
2022/11/19 00:44:05;;;;;;;12.02;5.13;;;;;;;-3.83;74.94;99509.63;5023831;28;20079;-53
2022/11/19 00:46:31;;;;;;;10.60;4.78;;;;;;;-3.86;74.65;99505.34;5014125;28;20112;-52
2022/11/19 00:48:58;;;;;;;10.90;5.10;;;;;;;-3.87;74.85;99505.28;5026938;28;20033;-55
2022/11/19 00:51:27;;;;;;;18.00;6.43;;;;;;;-3.88;74.56;99511.22;5027542;28;20045;-54
2022/11/19 00:53:53;;;;;;;14.48;6.07;;;;;;;-3.87;75.23;99506.16;5028390;28;20045;-53
2022/11/19 00:56:21;;;;;;;11.00;4.95;;;;;;;-3.84;75.25;99510.47;5029456;28;20045;-51
2022/11/19 00:58:48;;;;;;;9.23;4.07;;;;;;;-3.81;74.85;99518.13;5028164;28;20041;-53
2022/11/19 01:01:15;;;;;;;9.30;4.63;;;;;;;-3.75;75.08;99520.78;5028282;28;20045;-67
2022/11/19 01:03:44;;;;;;;9.25;4.40;;;;;;;-3.67;74.40;99519.28;5011067;28;20049;-71
2022/11/19 01:06:10;;;;;;;11.60;4.90;;;;;;;-3.63;74.87;99521.03;5028211;28;20037;-56
2022/11/19 01:08:36;;;;;;;8.32;4.50;;;;;;;-3.55;74.32;99532.19;5043931;28;20056;-57
2022/11/19 01:11:10;;;;;;;9.68;4.60;;;;;;;-3.48;74.90;99538.25;5029525;28;20045;-53
2022/11/19 01:13:36;;;;;;;9.82;4.35;;;;;;;-3.46;74.32;99534.94;5010106;28;20045;-56
2022/11/19 01:16:08;;;;;;;9.48;4.43;;;;;;;-3.34;74.10;99543.59;5027831;28;20045;-56
2022/11/19 01:18:35;;;;;;;9.98;4.32;;;;;;;-3.29;74.25;99542.84;5010650;28;20038;-58
2022/11/19 01:21:02;;;;;;;9.65;4.47;;;;;;;-3.40;73.71;99518.09;5027806;28;20046;-54
2022/11/19 01:23:28;;;;;;;10.75;4.57;;;;;;;-3.18;73.88;99548.97;5027159;28;20103;-51
2022/11/19 01:25:54;;;;;;;8.52;4.55;;;;;;;-3.12;73.71;99554.19;5027971;28;20047;-54
2022/11/19 01:28:20;;;;;;;7.60;3.75;;;;;;;-3.24;73.80;99530.22;5027952;28;20140;-54
2022/11/19 01:30:46;;;;;;;8.65;4.45;;;;;;;-3.03;73.19;99561.97;5011617;28;20536;-55
2022/11/19 01:33:12;;;;;;;10.25;4.90;;;;;;;-3.19;73.32;99524.38;5028476;28;20053;-51
2022/11/19 01:35:38;;;;;;;9.20;4.00;;;;;;;-2.98;73.28;99549.31;5027790;28;20071;-52
2022/11/19 01:38:04;;;;;;;11.35;5.38;;;;;;;-2.95;73.23;99556.16;5028204;28;20087;-53
2022/11/19 01:40:30;;;;;;;10.20;4.80;;;;;;;-2.94;73.10;99561.28;4994377;28;20051;-55
2022/11/19 01:42:56;;;;;;;10.23;4.63;;;;;;;-2.92;72.70;99557.06;5027357;28;20037;-51
2022/11/19 01:45:35;;;;;;;10.52;4.45;;;;;;;-2.90;72.85;99554.56;5027795;28;20045;-52
2022/11/19 01:48:19;;;;;;;11.73;4.78;;;;;;;-2.89;72.98;99562.22;5028006;28;20037;-50
2022/11/19 01:50:51;;;;;;;8.20;3.97;;;;;;;-3.06;72.88;99541.59;5029046;28;20049;-55
2022/11/19 01:53:18;;;;;;;8.02;4.07;;;;;;;-2.88;72.84;99579.22;5025077;28;20041;-55
2022/11/19 01:55:45;;;;;;;7.35;3.85;;;;;;;-2.83;72.58;99584.38;5027125;28;20158;-56
2022/11/19 01:58:16;;;;;;;6.60;3.83;;;;;;;-2.81;72.33;99586.09;5028520;28;20398;-57
2022/11/19 02:00:42;;;;;;;9.52;3.92;;;;;;;-2.81;72.50;99586.09;5011021;28;20051;-54
2022/11/19 02:03:09;;;;;;;8.20;4.00;;;;;;;-2.81;72.13;99590.31;5030807;28;20045;-57
2022/11/19 02:05:36;;;;;;;8.18;4.50;;;;;;;-2.79;72.04;99598.84;5031248;28;20057;-54
2022/11/19 02:08:06;;;;;;;10.40;4.43;;;;;;;-2.94;72.15;99566.38;4998647;28;20037;-55
2022/11/19 02:10:50;;;;;;;11.80;4.80;;;;;;;-2.82;71.75;99597.09;5030453;28;20051;-50
2022/11/19 02:13:46;;;;;;;8.27;3.88;;;;;;;-2.86;71.68;99600.41;5031626;28;20120;-52
2022/11/19 02:16:45;;;;;;;10.32;4.30;;;;;;;-2.85;72.02;99609.78;5005143;28;20053;-53
2022/11/19 02:19:39;;;;;;;7.65;4.55;;;;;;;-2.84;72.17;99610.63;5035477;28;20054;-50
2022/11/19 02:22:17;;;;;;;10.18;4.97;;;;;;;-2.84;71.67;99603.84;5032477;28;20079;-51
2022/11/19 02:24:51;;;;;;;8.80;4.22;;;;;;;-2.84;71.91;99616.56;5031413;28;20421;-57
2022/11/19 02:27:25;;;;;;;11.45;3.92;;;;;;;-2.81;72.22;99615.75;5013374;28;20045;-54
2022/11/19 02:30:05;;;;;;;9.55;4.65;;;;;;;-2.81;71.85;99625.94;5032254;28;20909;-55
2022/11/19 02:33:14;;;;;;;8.18;4.07;;;;;;;-2.80;71.67;99612.38;4997353;28;20045;-54
2022/11/19 02:35:48;;;;;;;10.52;5.03;;;;;;;-2.79;72.00;99614.09;5030908;28;20057;-53
2022/11/19 02:38:17;;;;;;;10.82;4.55;;;;;;;-2.79;71.98;99601.38;5014541;28;20044;-53
2022/11/19 02:40:49;;;;;;;12.20;4.68;;;;;;;-2.92;71.82;99579.09;5014382;28;20095;-54
2022/11/19 02:43:35;;;;;;;9.73;4.43;;;;;;;-2.78;71.84;99603.97;5015443;28;20156;-53
2022/11/19 02:46:05;;;;;;;10.35;4.78;;;;;;;-2.76;71.72;99596.34;5029337;28;20060;-50
2022/11/19 02:48:40;;;;;;;9.00;4.60;;;;;;;-2.75;71.64;99592.97;5016335;28;20406;-50
2022/11/19 02:51:07;;;;;;;9.95;4.25;;;;;;;-2.77;71.77;99599.72;5010874;28;20424;-52
2022/11/19 02:53:33;;;;;;;11.25;4.90;;;;;;;-2.79;71.42;99611.56;5030285;28;20572;-49
2022/11/19 02:56:11;;;;;;;6.97;4.22;;;;;;;-2.78;71.48;99608.19;5029599;28;20551;-53
2022/11/19 03:04:28;;;;;;;10.65;5.10;;;;;;;-2.83;71.43;99597.94;5029045;28;20049;-50
2022/11/19 03:07:03;;;;;;;11.13;4.63;;;;;;;-2.72;71.54;99611.69;5031583;28;20076;-53
2022/11/19 03:09:31;;;;;;;10.18;4.35;;;;;;;-2.70;71.27;99616.81;5030316;28;20219;-54
2022/11/19 03:12:42;;;;;;;10.65;4.68;;;;;;;-2.68;71.16;99618.56;5029206;28;20124;-56
2022/11/19 03:18:50;;;;;;;8.25;4.80;;;;;;;-2.65;71.71;99617.75;5046762;28;20052;-55
2022/11/19 03:21:29;;;;;;;11.40;4.65;;;;;;;-2.86;71.36;99590.25;5028214;28;20052;-51
2022/11/19 03:24:08;;;;;;;12.35;4.95;;;;;;;-2.65;71.62;99618.59;4996758;28;20068;-51
2022/11/19 03:26:57;;;;;;;13.48;4.65;;;;;;;-2.62;71.33;99633.91;5030055;28;20049;-49
2022/11/19 03:29:25;;;;;;;8.57;4.82;;;;;;;-2.78;71.22;99603.13;5029704;28;20116;-49
2022/11/19 03:31:55;;;;;;;10.27;4.78;;;;;;;-2.74;71.41;99599.78;5013203;28;20050;-52
2022/11/19 03:34:22;;;;;;;10.98;5.22;;;;;;;-2.59;71.61;99628.03;5029564;28;20069;-50
2022/11/19 03:36:50;;;;;;;14.85;6.32;;;;;;;-2.75;71.53;99595.50;5013278;28;20536;-53
2022/11/19 03:39:17;;;;;;;10.30;5.00;;;;;;;-2.70;71.48;99601.53;5028992;28;20056;-53
2022/11/19 03:41:46;;;;;;;10.98;4.72;;;;;;;-2.49;71.72;99634.97;5026534;28;20037;-53
2022/11/19 03:44:23;;;;;;;10.02;4.63;;;;;;;-2.47;71.63;99633.34;5009562;28;20066;-52
2022/11/19 03:46:53;;;;;;;13.60;5.60;;;;;;;-2.47;71.23;99633.34;5011887;28;20076;-53
2022/11/19 03:49:21;;;;;;;11.63;4.82;;;;;;;-2.44;71.36;99646.09;5025740;28;20041;-52
2022/11/19 03:51:51;;;;;;;11.83;5.10;;;;;;;-2.48;71.40;99636.72;5037761;28;20083;-52
2022/11/19 03:54:17;;;;;;;11.52;4.90;;;;;;;-2.55;71.28;99622.16;5012242;28;20041;-53
2022/11/19 03:56:44;;;;;;;12.63;5.57;;;;;;;-2.38;71.31;99658.06;5030907;28;20045;-55
2022/11/19 03:59:11;;;;;;;9.55;4.95;;;;;;;-2.39;71.45;99654.66;5029607;28;20052;-54
2022/11/19 04:01:37;;;;;;;10.63;5.10;;;;;;;-2.51;71.47;99634.09;5025004;28;20476;-52
2022/11/19 04:06:48;;;;;;;9.73;4.72;;;;;;;-2.35;71.06;99665.75;5030206;28;20505;-56
2022/11/19 04:09:14;;;;;;;11.45;5.38;;;;;;;-2.43;70.90;99639.31;5028181;28;20047;-52
2022/11/19 04:11:40;;;;;;;12.40;5.55;;;;;;;-2.30;70.93;99672.63;5027985;28;20037;-52
2022/11/19 04:14:06;;;;;;;11.23;4.80;;;;;;;-2.36;70.94;99658.97;5029299;28;20033;-53
2022/11/19 04:16:32;;;;;;;11.98;5.50;;;;;;;-2.28;71.02;99681.16;5029001;28;20152;-54
2022/11/19 04:18:58;;;;;;;10.10;5.00;;;;;;;-2.26;71.04;99686.28;5029349;28;20498;-54
2022/11/19 04:21:23;;;;;;;15.32;5.53;;;;;;;-2.24;71.14;99697.34;5030025;28;20048;-55
2022/11/19 04:23:49;;;;;;;13.10;5.28;;;;;;;-2.24;71.12;99695.66;5030067;28;20040;-56
2022/11/19 04:26:15;;;;;;;10.45;5.05;;;;;;;-2.22;70.74;99690.59;5026667;28;20037;-54
2022/11/19 04:28:41;;;;;;;10.70;4.57;;;;;;;-2.42;70.87;99646.13;5012249;28;20067;-53
2022/11/19 04:31:06;;;;;;;10.65;4.57;;;;;;;-2.20;70.86;99678.75;5045435;28;20039;-52
2022/11/19 04:33:32;;;;;;;9.30;4.80;;;;;;;-2.21;70.62;99687.22;5008780;28;20519;-50
2022/11/19 04:35:58;;;;;;;9.48;4.80;;;;;;;-2.35;71.08;99670.84;5016854;28;20037;-54
2022/11/19 04:38:24;;;;;;;8.73;4.60;;;;;;;-2.16;70.84;99706.84;5029091;28;20595;-52
2022/11/19 04:40:50;;;;;;;8.80;4.78;;;;;;;-2.18;70.89;99698.31;5028987;28;20424;-54
2022/11/19 04:43:16;;;;;;;9.73;4.53;;;;;;;-2.33;70.79;99671.72;5027915;28;20100;-52
2022/11/19 04:45:42;;;;;;;8.75;4.53;;;;;;;-2.45;70.92;99640.97;5029267;28;20072;-54
2022/11/19 04:48:07;;;;;;;10.68;4.63;;;;;;;-2.11;70.65;99693.31;5028159;28;20563;-54
2022/11/19 04:50:33;;;;;;;12.07;4.97;;;;;;;-2.11;70.78;99700.97;5011529;28;20081;-56
2022/11/19 04:52:59;;;;;;;8.57;4.15;;;;;;;-2.16;70.78;99701.75;5028304;28;20037;-54
2022/11/19 04:55:25;;;;;;;7.68;4.43;;;;;;;-2.16;70.72;99705.97;5028873;28;20508;-49
2022/11/19 04:57:52;;;;;;;10.32;4.68;;;;;;;-2.45;70.53;99651.16;5010487;28;20077;-53
2022/11/19 05:00:18;;;;;;;13.75;5.25;;;;;;;-2.10;70.59;99710.31;5029806;28;20057;-55
2022/11/19 05:02:44;;;;;;;11.30;4.57;;;;;;;-2.08;70.57;99717.13;5011747;28;20041;-53
2022/11/19 05:05:10;;;;;;;8.77;4.50;;;;;;;-2.22;70.93;99678.72;5029346;28;20091;-55
2022/11/19 05:07:36;;;;;;;8.32;4.32;;;;;;;-2.14;70.75;99689.03;5029309;28;20095;-53
2022/11/19 05:10:03;;;;;;;11.07;5.30;;;;;;;-2.03;70.58;99709.56;5029905;28;20065;-55
2022/11/19 05:12:29;;;;;;;11.63;5.28;;;;;;;-2.06;70.71;99712.94;5022055;28;20083;-56
2022/11/19 05:14:55;;;;;;;12.00;4.68;;;;;;;-2.11;70.79;99699.28;5027980;28;20072;-55
2022/11/19 05:17:20;;;;;;;10.77;5.15;;;;;;;-2.07;70.75;99700.19;5027575;28;20045;-55
2022/11/19 05:19:46;;;;;;;13.68;5.30;;;;;;;-2.04;70.72;99690.88;5027411;28;20144;-52
2022/11/19 05:22:12;;;;;;;9.05;4.50;;;;;;;-2.20;70.61;99654.13;5029151;28;20432;-50
2022/11/19 05:24:38;;;;;;;12.10;5.13;;;;;;;-2.15;70.83;99665.25;5028088;28;20107;-54
2022/11/19 05:27:04;;;;;;;11.20;4.75;;;;;;;-2.02;70.92;99681.59;5011461;28;20075;-51
2022/11/19 05:29:30;;;;;;;9.52;4.22;;;;;;;-2.01;70.93;99688.41;5011423;28;20504;-54
2022/11/19 05:31:56;;;;;;;9.68;4.60;;;;;;;-2.00;70.95;99689.25;5027768;28;20053;-54
2022/11/19 05:34:22;;;;;;;11.35;4.90;;;;;;;-1.98;71.10;99690.97;5044454;28;20049;-55
2022/11/19 05:36:48;;;;;;;10.43;4.70;;;;;;;-1.99;70.97;99690.97;5029615;28;20428;-55
2022/11/19 05:39:13;;;;;;;11.45;5.25;;;;;;;-1.98;70.96;99693.53;5016813;28;20041;-57
2022/11/19 05:41:39;;;;;;;9.77;4.93;;;;;;;-2.00;71.32;99702.84;5034374;28;20588;-53
2022/11/19 05:44:05;;;;;;;9.98;5.20;;;;;;;-1.99;71.12;99708.81;5035407;28;20053;-55
2022/11/19 05:46:31;;;;;;;10.20;4.75;;;;;;;-1.96;70.99;99709.72;5034165;28;20414;-55
2022/11/19 05:48:57;;;;;;;13.98;5.18;;;;;;;-1.92;71.17;99697.88;5041400;28;20041;-56
2022/11/19 05:51:23;;;;;;;12.10;4.72;;;;;;;-1.89;71.16;99716.63;5030902;28;20042;-55
2022/11/19 05:53:49;;;;;;;12.25;5.15;;;;;;;-1.87;71.22;99721.72;5033138;28;20065;-53
2022/11/19 05:56:15;;;;;;;12.45;5.18;;;;;;;-1.82;71.22;99713.31;5021519;28;20056;-57
2022/11/19 05:58:41;;;;;;;13.70;4.85;;;;;;;-1.75;71.23;99711.72;4994548;28;20069;-57
2022/11/19 06:01:08;;;;;;;11.43;4.55;;;;;;;-1.67;71.15;99722.06;5041317;28;20128;-53
2022/11/19 06:03:33;;;;;;;10.23;5.00;;;;;;;-1.67;71.10;99720.34;5020699;28;20091;-56
2022/11/19 06:06:00;;;;;;;7.85;4.70;;;;;;;-1.80;71.23;99708.25;5014018;28;20088;-57
2022/11/19 06:08:27;;;;;;;11.95;5.70;;;;;;;-1.87;71.11;99683.50;4996984;28;20033;-57
2022/11/19 06:10:53;;;;;;;11.38;5.10;;;;;;;-1.77;71.27;99676.03;5011834;28;20116;-57
2022/11/19 06:13:19;;;;;;;34.85;7.25;;;;;;;-1.52;70.91;99712.94;5000110;28;20144;-55
2022/11/19 06:15:45;;;;;;;10.48;5.00;;;;;;;-1.48;70.89;99717.25;5034102;28;20132;-55
2022/11/19 06:18:12;;;;;;;9.63;5.30;;;;;;;-1.40;71.05;99714.78;5050215;28;20059;-54
2022/11/19 06:20:38;;;;;;;12.25;5.22;;;;;;;-1.36;70.72;99711.47;5038226;28;20140;-57
2022/11/19 06:23:04;;;;;;;10.98;5.53;;;;;;;-1.36;70.99;99706.38;5035574;28;20128;-56
2022/11/19 06:25:29;;;;;;;10.45;5.25;;;;;;;-1.34;70.96;99709.78;5028244;28;20140;-56
2022/11/19 06:27:55;;;;;;;9.27;4.75;;;;;;;-1.34;71.06;99720.84;5027116;28;20120;-56
2022/11/19 06:30:21;;;;;;;10.13;5.00;;;;;;;-1.32;70.78;99716.63;5026398;28;20491;-52
2022/11/19 06:32:47;;;;;;;13.35;5.38;;;;;;;-1.31;70.75;99699.63;5041214;28;20501;-54
2022/11/19 06:35:13;;;;;;;10.10;5.07;;;;;;;-1.25;70.45;99720.09;5021992;28;20112;-54
2022/11/19 06:37:39;;;;;;;12.38;5.25;;;;;;;-1.21;70.64;99718.47;5033838;28;20045;-52
2022/11/19 06:40:05;;;;;;;11.45;5.50;;;;;;;-1.18;70.61;99736.34;5035016;28;20389;-54
2022/11/19 06:42:37;;;;;;;12.80;5.03;;;;;;;-1.15;70.51;99726.19;5034501;28;20037;-55
2022/11/19 06:45:08;;;;;;;13.93;5.15;;;;;;;-1.11;70.39;99733.91;5029661;28;20064;-48
2022/11/19 06:47:34;;;;;;;11.43;5.43;;;;;;;-1.03;70.45;99732.28;5029253;28;20041;-52
2022/11/19 06:50:00;;;;;;;13.77;6.03;;;;;;;-1.17;70.21;99699.78;5024807;28;20048;-50
2022/11/19 06:52:26;;;;;;;11.63;5.07;;;;;;;-1.01;70.46;99742.53;5027558;28;20095;-51
2022/11/19 06:54:52;;;;;;;11.35;5.53;;;;;;;-1.05;70.38;99751.84;5023130;28;20084;-51
2022/11/19 06:57:17;;;;;;;11.75;5.20;;;;;;;-1.09;70.29;99750.06;5023359;28;20135;-52
2022/11/19 06:59:44;;;;;;;9.57;5.63;;;;;;;-1.07;70.31;99738.19;5026013;28;20192;-53
2022/11/19 07:02:12;;;;;;;10.35;4.88;;;;;;;-1.01;70.63;99750.19;5022613;28;20610;-53
2022/11/19 07:04:38;;;;;;;12.10;5.85;;;;;;;-0.96;70.23;99758.75;5010995;28;20504;-57
2022/11/19 07:07:04;;;;;;;12.27;6.03;;;;;;;-0.91;70.51;99757.97;5028084;28;20425;-50
2022/11/19 07:09:30;;;;;;;10.32;5.40;;;;;;;-0.83;70.21;99765.72;5025908;28;20045;-53
2022/11/19 07:11:56;;;;;;;10.65;5.40;;;;;;;-0.97;70.22;99742.56;5021862;28;20045;-51
2022/11/19 07:14:22;;;;;;;10.48;4.95;;;;;;;-0.77;69.85;99781.09;5025553;28;20131;-51
2022/11/19 07:16:48;;;;;;;14.60;4.80;;;;;;;-0.73;69.87;99784.56;5029992;28;20041;-61
2022/11/19 07:19:14;;;;;;;10.23;5.10;;;;;;;-0.67;69.36;99789.72;5030896;28;20053;-60
2022/11/19 07:21:40;;;;;;;8.75;4.20;;;;;;;-0.69;69.50;99791.41;5012841;28;20543;-51
2022/11/19 07:24:07;;;;;;;10.18;4.07;;;;;;;-0.72;69.11;99793.91;5045713;28;20069;-60
2022/11/19 07:26:34;;;;;;;8.98;4.28;;;;;;;-0.71;69.24;99804.16;5029612;28;20060;-57
2022/11/19 07:29:05;;;;;;;7.90;4.00;;;;;;;-0.72;69.11;99806.69;5027184;28;20547;-56
2022/11/19 07:31:32;;;;;;;10.23;4.35;;;;;;;-0.75;68.88;99817.72;5032272;28;20053;-62
2022/11/19 07:33:58;;;;;;;10.32;4.00;;;;;;;-0.72;68.63;99822.00;5038475;28;20041;-60
2022/11/19 07:36:28;;;;;;;9.63;4.22;;;;;;;-0.71;68.70;99819.47;5017061;28;20503;-56
2022/11/19 07:38:54;;;;;;;;;;;;;;;-0.70;68.61;99825.44;5013071;28;20045;-57
2022/11/19 07:44:05;;;;;;;10.18;4.30;;;;;;;-0.71;68.36;99837.34;5029911;28;20045;-59
2022/11/19 07:46:30;;;;;;;10.13;4.50;;;;;;;-0.67;68.61;99833.13;5029788;28;20037;-60
2022/11/19 07:48:57;;;;;;;7.90;3.95;;;;;;;-0.65;68.76;99842.53;5029328;28;20475;-59
2022/11/19 07:51:23;;;;;;;8.68;4.07;;;;;;;-0.71;68.42;99842.44;5029096;28;20040;-59
2022/11/19 07:53:49;;;;;;;8.70;4.75;;;;;;;-0.92;68.71;99807.28;5028988;28;20038;-57
2022/11/19 07:56:16;;;;;;;11.85;5.55;;;;;;;-0.67;68.53;99845.88;5030949;28;20115;-57
2022/11/19 07:58:42;;;;;;;11.30;5.03;;;;;;;-0.66;68.64;99834.84;5030146;28;20048;-57
2022/11/19 08:01:19;;;;;;;9.65;4.80;;;;;;;-0.63;68.76;99834.91;5029245;28;20090;-56
2022/11/19 08:03:47;;;;;;;10.48;4.82;;;;;;;-0.61;68.81;99840.84;5030675;28;20045;-59
2022/11/19 08:06:14;;;;;;;12.52;5.13;;;;;;;-0.56;68.68;99850.28;5029999;28;20570;-57
2022/11/19 08:08:41;;;;;;;9.27;4.65;;;;;;;-0.55;68.72;99844.34;5029507;28;20049;-53
2022/11/19 08:11:09;;;;;;;10.57;4.55;;;;;;;-0.52;68.50;99852.03;5029238;28;20546;-58
2022/11/19 08:13:35;;;;;;;12.20;4.80;;;;;;;-0.52;68.58;99857.16;5030300;28;20092;-56
2022/11/19 08:16:09;;;;;;;11.68;5.53;;;;;;;-0.53;68.72;99852.91;5028789;28;20114;-59
2022/11/19 08:18:36;;;;;;;11.68;5.05;;;;;;;-0.46;68.71;99841.91;5037745;28;20056;-59
2022/11/19 08:21:09;;;;;;;11.88;5.70;;;;;;;-0.43;68.59;99846.22;5048223;28;20040;-56
2022/11/19 08:23:36;;;;;;;11.95;5.65;;;;;;;-0.46;68.53;99828.28;5030556;28;20090;-57
2022/11/19 08:26:05;;;;;;;8.80;4.65;;;;;;;-0.41;68.55;99831.75;5028674;28;20570;-52
2022/11/19 08:28:31;;;;;;;9.93;4.55;;;;;;;-0.48;68.42;99823.19;5030048;28;20459;-59
2022/11/19 08:31:07;;;;;;;9.27;4.55;;;;;;;-0.50;68.54;99829.94;5029844;28;20061;-57
2022/11/19 08:33:34;;;;;;;10.63;4.95;;;;;;;-0.53;68.09;99822.25;5010172;28;20042;-56
2022/11/19 08:36:00;;;;;;;11.82;5.65;;;;;;;-0.49;68.32;99824.00;5008575;28;20140;-58
2022/11/19 08:38:26;;;;;;;11.90;4.97;;;;;;;-0.44;68.37;99824.06;5011833;28;20143;-58
2022/11/19 08:42:58;;;;;;;10.05;5.60;;;;;;;-0.38;68.32;99818.16;5028698;28;20048;-56
2022/11/19 08:43:38;;;;;;;11.98;5.03;;;;;;;-0.41;68.59;99808.75;5029888;28;20398;-54
2022/11/19 08:46:05;;;;;;;9.32;5.03;;;;;;;-0.40;68.47;99804.50;5044603;28;20171;-55
2022/11/19 08:48:31;;;;;;;10.07;5.03;;;;;;;-0.39;68.67;99803.69;5029688;28;20072;-58
2022/11/19 08:50:58;;;;;;;13.05;5.70;;;;;;;-0.33;68.59;99796.09;5028524;28;20132;-59
2022/11/19 08:53:23;;;;;;;9.00;5.45;;;;;;;-0.28;68.61;99802.97;5029252;28;20049;-53
2022/11/19 08:55:50;;;;;;;10.10;5.00;;;;;;;-0.30;68.37;99807.19;5028416;28;20118;-56
2022/11/19 08:58:16;;;;;;;8.27;4.75;;;;;;;-0.30;68.38;99806.34;5012067;28;20120;-58
2022/11/19 09:00:42;;;;;;;10.40;5.00;;;;;;;-0.30;68.37;99807.19;5028366;28;20183;-56
2022/11/19 09:03:08;;;;;;;9.85;4.93;;;;;;;-0.50;68.25;99794.19;5027776;28;20087;-55
2022/11/19 09:05:34;;;;;;;7.75;4.40;;;;;;;-0.38;68.24;99807.97;5029722;28;20123;-55
2022/11/19 09:07:59;;;;;;;9.20;5.38;;;;;;;-0.38;68.63;99806.25;5029264;28;20038;-59
2022/11/19 09:10:26;;;;;;;10.13;5.05;;;;;;;-0.40;68.78;99807.06;5028133;28;20045;-55
2022/11/19 09:12:52;;;;;;;9.55;4.68;;;;;;;-0.49;68.63;99805.28;5028514;28;20090;-57
2022/11/19 09:15:19;;;;;;;9.15;5.18;;;;;;;-0.58;68.73;99779.66;5029194;28;20041;-56
2022/11/19 09:17:45;;;;;;;9.88;4.63;;;;;;;-0.42;68.56;99805.34;5029640;28;20052;-58
2022/11/19 09:20:11;;;;;;;10.23;4.63;;;;;;;-0.40;68.89;99805.38;5049284;28;20136;-54
2022/11/19 09:22:37;;;;;;;12.32;4.60;;;;;;;-0.40;68.74;99812.19;5023543;28;20132;-58
2022/11/19 09:25:03;;;;;;;14.52;5.75;;;;;;;-0.40;68.96;99819.84;5044595;28;20044;-56
2022/11/19 09:27:29;;;;;;;10.18;5.35;;;;;;;-0.42;69.37;99814.72;5029208;28;20045;-55
2022/11/19 09:29:55;;;;;;;9.85;4.68;;;;;;;-0.40;68.94;99822.38;5044356;28;20041;-53
2022/11/19 09:32:21;;;;;;;11.73;4.88;;;;;;;-0.43;69.22;99828.34;5046345;28;20063;-55
2022/11/19 09:34:47;;;;;;;11.77;4.72;;;;;;;-0.42;69.12;99835.16;5029173;28;20134;-60
2022/11/19 09:37:13;;;;;;;6.93;4.40;;;;;;;-0.53;68.98;99831.63;5028784;28;20590;-56
2022/11/19 09:39:39;;;;;;;12.43;4.90;;;;;;;-0.52;69.24;99843.53;5027918;28;20049;-56
2022/11/19 09:42:36;;;;;;;13.15;5.00;;;;;;;-0.58;69.42;99813.69;5027350;28;20072;-59
2022/11/19 09:45:13;;;;;;;9.68;4.80;;;;;;;-0.34;69.12;99840.34;5030275;28;20053;-57
2022/11/19 09:47:53;;;;;;;8.68;4.50;;;;;;;-0.37;69.03;99843.75;5029195;28;20041;-58
2022/11/19 09:50:21;;;;;;;8.13;4.40;;;;;;;-0.45;68.98;99850.44;5027667;28;20103;-59
2022/11/19 09:52:52;;;;;;;10.00;4.55;;;;;;;-0.71;68.88;99813.50;5027379;28;20139;-59
2022/11/19 09:55:40;;;;;;;9.15;4.72;;;;;;;-0.47;68.75;99844.44;5029101;28;20033;-56
2022/11/19 09:58:16;;;;;;;8.45;4.18;;;;;;;-0.46;68.99;99847.00;5028071;28;20068;-57
2022/11/19 10:00:43;;;;;;;10.32;4.50;;;;;;;-0.45;69.01;99863.19;5026715;28;20045;-58
2022/11/19 10:03:17;;;;;;;7.13;4.43;;;;;;;-0.44;68.84;99852.16;5028887;28;20179;-59
2022/11/19 10:05:43;;;;;;;9.77;5.05;;;;;;;-0.44;68.68;99842.81;5027632;28;20041;-58
2022/11/19 10:08:53;;;;;;;9.35;4.93;;;;;;;-0.40;68.85;99843.69;5028779;28;20132;-58
2022/11/19 10:11:34;;;;;;;7.32;4.25;;;;;;;-0.41;68.65;99839.41;4986915;28;20046;-55
2022/11/19 10:14:31;;;;;;;11.50;5.50;;;;;;;-0.50;68.81;99846.97;4970850;28;20049;-59
2022/11/19 10:17:06;;;;;;;9.35;4.65;;;;;;;-0.61;69.17;99844.28;4987137;28;20046;-55
2022/11/19 10:20:09;;;;;;;8.38;4.68;;;;;;;-0.66;69.09;99845.06;4986572;28;20046;-56
2022/11/19 10:22:35;;;;;;;7.28;4.20;;;;;;;-0.79;68.77;99838.09;4987073;28;20608;-57
2022/11/19 10:25:13;;;;;;;9.43;4.88;;;;;;;-0.77;69.08;99842.34;4989359;28;20097;-54
2022/11/19 10:27:50;;;;;;;7.28;4.40;;;;;;;-0.83;69.15;99833.75;4974733;28;20138;-53
2022/11/19 10:30:22;;;;;;;9.77;5.18;;;;;;;-0.86;69.34;99832.03;4989449;28;20434;-57
2022/11/19 10:33:04;;;;;;;8.73;4.57;;;;;;;-0.84;69.63;99822.72;4990246;28;20046;-52
2022/11/19 10:35:43;;;;;;;7.28;4.45;;;;;;;-0.79;69.38;99821.06;4990404;28;20042;-56
2022/11/19 10:38:39;;;;;;;9.52;5.03;;;;;;;-0.79;69.32;99810.00;4974068;28;20042;-60
2022/11/19 10:41:31;;;;;;;12.13;5.13;;;;;;;-0.77;69.62;99808.31;4977855;28;20061;-61
2022/11/19 10:44:04;;;;;;;9.93;5.03;;;;;;;-0.74;69.72;99816.88;5013202;28;20424;-54
2022/11/19 10:46:30;;;;;;;9.50;5.20;;;;;;;-0.64;69.90;99808.50;5030656;28;20048;-53
2022/11/19 10:48:58;;;;;;;9.70;5.43;;;;;;;-0.59;69.83;99806.88;5031763;28;20076;-57
2022/11/19 10:51:37;;;;;;;11.88;5.53;;;;;;;-0.53;69.64;99795.88;5014125;28;20037;-55
2022/11/19 10:54:04;;;;;;;10.18;5.22;;;;;;;-0.57;69.67;99789.00;5030190;28;20148;-54
2022/11/19 10:56:37;;;;;;;7.25;4.47;;;;;;;-0.55;69.77;99788.19;5030468;28;20550;-56
2022/11/19 10:59:15;;;;;;;7.80;4.68;;;;;;;-0.59;69.84;99794.09;5030332;28;20053;-58
2022/11/19 11:01:43;;;;;;;10.02;5.03;;;;;;;-0.56;70.04;99785.59;5014183;28;20127;-60
2022/11/19 11:04:18;;;;;;;9.65;4.80;;;;;;;-0.51;69.75;99776.31;5030739;28;20571;-56
2022/11/19 11:06:58;;;;;;;8.95;4.45;;;;;;;-0.61;69.95;99762.56;5030055;28;20033;-56
2022/11/19 11:09:30;;;;;;;10.30;5.35;;;;;;;-0.54;69.82;99774.59;5030972;28;20041;-58
2022/11/19 11:15:14;;;;;;;13.30;6.20;;;;;;;-0.57;70.49;99760.91;5016396;28;20039;-56
2022/11/19 11:17:41;;;;;;;11.10;5.80;;;;;;;-0.57;70.50;99750.69;5029939;28;20045;-60
2022/11/19 11:20:25;;;;;;;12.82;5.40;;;;;;;-0.55;70.77;99746.47;5047082;28;20047;-56
2022/11/19 11:23:09;;;;;;;11.82;5.43;;;;;;;-0.58;70.80;99754.97;5030055;28;20493;-58
2022/11/19 11:25:37;;;;;;;10.15;5.57;;;;;;;-0.61;71.06;99749.81;5031048;28;20092;-61
2022/11/19 11:28:04;;;;;;;12.00;5.82;;;;;;;-0.61;71.07;99756.59;5031469;28;20033;-59
2022/11/19 11:30:30;;;;;;;22.60;6.38;;;;;;;-0.57;71.18;99763.47;5029879;28;20045;-57
2022/11/19 11:32:56;;;;;;;8.88;5.00;;;;;;;-0.55;71.21;99760.09;5043082;28;20044;-60
2022/11/19 11:35:34;;;;;;;10.23;5.30;;;;;;;-0.75;70.80;99728.38;5027222;28;20501;-58
2022/11/19 11:38:01;;;;;;;11.32;5.47;;;;;;;-0.61;70.93;99762.56;5029920;28;20048;-62
2022/11/19 11:40:28;;;;;;;10.15;5.25;;;;;;;-0.65;71.22;99755.72;5029408;28;20127;-56
2022/11/19 11:42:54;;;;;;;12.10;5.53;;;;;;;-0.66;71.19;99758.25;5013120;28;20420;-54
2022/11/19 11:45:30;;;;;;;12.10;5.78;;;;;;;-0.81;71.40;99724.91;5029502;28;20094;-57
2022/11/19 11:47:57;;;;;;;10.10;5.63;;;;;;;-0.64;71.15;99748.94;5032340;28;20044;-55
2022/11/19 11:50:26;;;;;;;8.48;4.78;;;;;;;-0.65;71.56;99753.19;5038652;28;20155;-58
2022/11/19 11:52:53;;;;;;;10.20;5.75;;;;;;;-0.62;71.48;99754.91;4996407;28;20102;-56
2022/11/19 11:55:22;;;;;;;8.98;5.07;;;;;;;-0.59;71.30;99747.28;5028905;28;20045;-56
2022/11/19 11:57:54;;;;;;;9.47;5.43;;;;;;;-0.57;71.59;99740.47;5032052;28;20041;-56
2022/11/19 12:00:32;;;;;;;7.80;4.88;;;;;;;-0.59;71.56;99737.06;5040822;28;20068;-55
2022/11/19 12:03:03;;;;;;;10.85;4.90;;;;;;;-0.66;71.35;99728.47;5028970;28;20156;-58